sensor_id;sensor_type;location;lat;lon;timestamp;P1;P2;P0
69224;PMS1003;56333;51.306;17.056;2023-05-15T00:00:49;8.10;7.20;
69224;PMS1003;56333;51.306;17.056;2023-05-15T00:02:18;8.00;7.20;
69224;PMS1003;56333;51.306;17.056;2023-05-15T00:03:47;9.10;7.30;
69224;PMS1003;56333;51.306;17.056;2023-05-15T00:05:16;7.80;7.00;
69224;PMS1003;56333;51.306;17.056;2023-05-15T00:06:46;9.10;7.90;
69224;PMS1003;56333;51.306;17.056;2023-05-15T00:08:16;8.50;7.60;
69224;PMS1003;56333;51.306;17.056;2023-05-15T00:09:44;8.50;7.60;
69224;PMS1003;56333;51.306;17.056;2023-05-15T00:11:13;9.50;8.10;
69224;PMS1003;56333;51.306;17.056;2023-05-15T00:12:41;9.60;7.40;
69224;PMS1003;56333;51.306;17.056;2023-05-15T00:14:11;8.40;6.90;
69224;PMS1003;56333;51.306;17.056;2023-05-15T00:15:42;9.20;7.90;
69224;PMS1003;56333;51.306;17.056;2023-05-15T00:17:11;8.00;7.20;
69224;PMS1003;56333;51.306;17.056;2023-05-15T00:18:40;8.70;7.40;
69224;PMS1003;56333;51.306;17.056;2023-05-15T00:20:11;9.10;8.00;
69224;PMS1003;56333;51.306;17.056;2023-05-15T00:21:40;9.40;7.80;
69224;PMS1003;56333;51.306;17.056;2023-05-15T00:23:08;8.40;7.60;
69224;PMS1003;56333;51.306;17.056;2023-05-15T00:24:36;8.40;7.50;
69224;PMS1003;56333;51.306;17.056;2023-05-15T00:26:07;8.40;7.50;
69224;PMS1003;56333;51.306;17.056;2023-05-15T00:27:35;8.10;7.30;
69224;PMS1003;56333;51.306;17.056;2023-05-15T00:29:04;8.30;7.20;
69224;PMS1003;56333;51.306;17.056;2023-05-15T00:30:33;7.60;6.80;
69224;PMS1003;56333;51.306;17.056;2023-05-15T00:32:02;8.40;7.50;
69224;PMS1003;56333;51.306;17.056;2023-05-15T00:33:32;8.40;7.50;
69224;PMS1003;56333;51.306;17.056;2023-05-15T00:35:03;8.50;7.60;
69224;PMS1003;56333;51.306;17.056;2023-05-15T00:36:32;8.80;8.00;
69224;PMS1003;56333;51.306;17.056;2023-05-15T00:38:01;8.60;7.70;
69224;PMS1003;56333;51.306;17.056;2023-05-15T00:39:30;9.00;7.50;
69224;PMS1003;56333;51.306;17.056;2023-05-15T00:40:58;9.40;7.20;
69224;PMS1003;56333;51.306;17.056;2023-05-15T00:42:29;8.50;7.00;
69224;PMS1003;56333;51.306;17.056;2023-05-15T00:43:58;8.30;7.00;
69224;PMS1003;56333;51.306;17.056;2023-05-15T00:45:28;8.50;7.20;
69224;PMS1003;56333;51.306;17.056;2023-05-15T00:46:58;7.70;6.90;
69224;PMS1003;56333;51.306;17.056;2023-05-15T00:48:28;8.00;6.80;
69224;PMS1003;56333;51.306;17.056;2023-05-15T00:49:57;8.20;6.60;
69224;PMS1003;56333;51.306;17.056;2023-05-15T00:51:27;9.50;7.70;
69224;PMS1003;56333;51.306;17.056;2023-05-15T00:52:56;8.30;7.20;
69224;PMS1003;56333;51.306;17.056;2023-05-15T00:54:26;8.30;6.70;
69224;PMS1003;56333;51.306;17.056;2023-05-15T00:55:57;7.60;6.70;
69224;PMS1003;56333;51.306;17.056;2023-05-15T00:57:27;8.00;7.10;
69224;PMS1003;56333;51.306;17.056;2023-05-15T00:58:57;7.80;7.00;
69224;PMS1003;56333;51.306;17.056;2023-05-15T01:00:26;9.20;7.20;
69224;PMS1003;56333;51.306;17.056;2023-05-15T01:01:56;9.10;6.90;
69224;PMS1003;56333;51.306;17.056;2023-05-15T01:03:25;7.80;6.80;
69224;PMS1003;56333;51.306;17.056;2023-05-15T01:04:55;8.60;7.70;
69224;PMS1003;56333;51.306;17.056;2023-05-15T01:06:24;9.40;8.40;
69224;PMS1003;56333;51.306;17.056;2023-05-15T01:08:03;8.60;7.70;
69224;PMS1003;56333;51.306;17.056;2023-05-15T01:09:36;9.20;8.20;
69224;PMS1003;56333;51.306;17.056;2023-05-15T01:11:06;9.60;8.40;
69224;PMS1003;56333;51.306;17.056;2023-05-15T01:12:37;9.10;7.80;
69224;PMS1003;56333;51.306;17.056;2023-05-15T01:14:08;10.40;8.80;
69224;PMS1003;56333;51.306;17.056;2023-05-15T01:15:38;9.40;7.70;
69224;PMS1003;56333;51.306;17.056;2023-05-15T01:17:07;9.30;7.70;
69224;PMS1003;56333;51.306;17.056;2023-05-15T01:18:36;8.70;7.90;
69224;PMS1003;56333;51.306;17.056;2023-05-15T01:20:07;9.90;7.70;
69224;PMS1003;56333;51.306;17.056;2023-05-15T01:22:27;9.90;7.60;
69224;PMS1003;56333;51.306;17.056;2023-05-15T01:24:45;8.40;7.40;
69224;PMS1003;56333;51.306;17.056;2023-05-15T01:27:12;8.40;7.60;
69224;PMS1003;56333;51.306;17.056;2023-05-15T01:28:53;9.10;7.90;
69224;PMS1003;56333;51.306;17.056;2023-05-15T01:30:30;9.90;8.20;
69224;PMS1003;56333;51.306;17.056;2023-05-15T01:32:08;9.80;8.80;
69224;PMS1003;56333;51.306;17.056;2023-05-15T01:33:46;9.50;8.50;
69224;PMS1003;56333;51.306;17.056;2023-05-15T01:35:29;12.20;10.00;
69224;PMS1003;56333;51.306;17.056;2023-05-15T01:37:03;10.70;9.60;
69224;PMS1003;56333;51.306;17.056;2023-05-15T01:38:39;12.00;10.70;
69224;PMS1003;56333;51.306;17.056;2023-05-15T01:40:15;12.20;10.20;
69224;PMS1003;56333;51.306;17.056;2023-05-15T01:41:53;11.70;10.60;
69224;PMS1003;56333;51.306;17.056;2023-05-15T01:43:27;13.60;11.30;
69224;PMS1003;56333;51.306;17.056;2023-05-15T01:44:57;14.30;12.20;
69224;PMS1003;56333;51.306;17.056;2023-05-15T01:46:30;13.20;11.90;
69224;PMS1003;56333;51.306;17.056;2023-05-15T01:48:00;14.00;12.60;
69224;PMS1003;56333;51.306;17.056;2023-05-15T01:49:31;15.70;13.10;
69224;PMS1003;56333;51.306;17.056;2023-05-15T01:51:02;15.10;13.10;
69224;PMS1003;56333;51.306;17.056;2023-05-15T01:52:34;14.30;12.80;
69224;PMS1003;56333;51.306;17.056;2023-05-15T01:54:05;14.30;12.90;
69224;PMS1003;56333;51.306;17.056;2023-05-15T01:55:37;14.30;12.90;
69224;PMS1003;56333;51.306;17.056;2023-05-15T01:57:06;14.20;12.00;
69224;PMS1003;56333;51.306;17.056;2023-05-15T01:58:37;14.30;12.80;
69224;PMS1003;56333;51.306;17.056;2023-05-15T02:00:12;14.70;13.20;
69224;PMS1003;56333;51.306;17.056;2023-05-15T02:01:41;15.70;13.30;
69224;PMS1003;56333;51.306;17.056;2023-05-15T02:03:13;15.20;13.70;
69224;PMS1003;56333;51.306;17.056;2023-05-15T02:04:45;15.60;13.60;
69224;PMS1003;56333;51.306;17.056;2023-05-15T02:06:14;15.60;14.00;
69224;PMS1003;56333;51.306;17.056;2023-05-15T02:07:44;15.40;13.90;
69224;PMS1003;56333;51.306;17.056;2023-05-15T02:09:15;15.10;13.60;
69224;PMS1003;56333;51.306;17.056;2023-05-15T02:10:44;14.20;12.70;
69224;PMS1003;56333;51.306;17.056;2023-05-15T02:12:15;14.90;13.20;
69224;PMS1003;56333;51.306;17.056;2023-05-15T02:13:45;14.30;12.80;
69224;PMS1003;56333;51.306;17.056;2023-05-15T02:15:14;14.20;12.90;
69224;PMS1003;56333;51.306;17.056;2023-05-15T02:16:46;14.10;12.70;
69224;PMS1003;56333;51.306;17.056;2023-05-15T02:18:15;14.30;12.80;
69224;PMS1003;56333;51.306;17.056;2023-05-15T02:19:44;15.10;13.50;
69224;PMS1003;56333;51.306;17.056;2023-05-15T02:21:13;14.30;12.80;
69224;PMS1003;56333;51.306;17.056;2023-05-15T02:22:41;14.10;12.60;
69224;PMS1003;56333;51.306;17.056;2023-05-15T02:24:10;14.30;12.90;
69224;PMS1003;56333;51.306;17.056;2023-05-15T02:25:48;13.60;12.20;
69224;PMS1003;56333;51.306;17.056;2023-05-15T02:27:27;14.00;12.60;
69224;PMS1003;56333;51.306;17.056;2023-05-15T02:29:09;14.10;12.60;
69224;PMS1003;56333;51.306;17.056;2023-05-15T02:30:53;14.20;12.70;
69224;PMS1003;56333;51.306;17.056;2023-05-15T02:32:30;14.90;13.40;
69224;PMS1003;56333;51.306;17.056;2023-05-15T02:34:11;14.20;12.70;
69224;PMS1003;56333;51.306;17.056;2023-05-15T02:35:50;15.50;13.90;
69224;PMS1003;56333;51.306;17.056;2023-05-15T02:37:26;14.60;13.20;
69224;PMS1003;56333;51.306;17.056;2023-05-15T02:38:59;15.30;13.00;
69224;PMS1003;56333;51.306;17.056;2023-05-15T02:40:29;14.70;13.10;
69224;PMS1003;56333;51.306;17.056;2023-05-15T02:42:00;14.60;13.00;
69224;PMS1003;56333;51.306;17.056;2023-05-15T02:43:30;13.80;12.20;
69224;PMS1003;56333;51.306;17.056;2023-05-15T02:45:00;13.40;12.10;
69224;PMS1003;56333;51.306;17.056;2023-05-15T02:46:29;12.90;11.60;
69224;PMS1003;56333;51.306;17.056;2023-05-15T02:47:59;13.10;11.70;
69224;PMS1003;56333;51.306;17.056;2023-05-15T02:49:29;13.20;11.80;
69224;PMS1003;56333;51.306;17.056;2023-05-15T02:50:58;14.00;12.70;
69224;PMS1003;56333;51.306;17.056;2023-05-15T02:52:27;15.20;12.90;
69224;PMS1003;56333;51.306;17.056;2023-05-15T02:53:57;13.90;12.50;
69224;PMS1003;56333;51.306;17.056;2023-05-15T02:55:27;13.90;12.50;
69224;PMS1003;56333;51.306;17.056;2023-05-15T02:56:56;13.90;12.30;
69224;PMS1003;56333;51.306;17.056;2023-05-15T02:58:25;12.80;11.50;
69224;PMS1003;56333;51.306;17.056;2023-05-15T02:59:55;13.40;12.10;
69224;PMS1003;56333;51.306;17.056;2023-05-15T03:01:24;13.60;12.20;
69224;PMS1003;56333;51.306;17.056;2023-05-15T03:02:53;12.60;11.30;
69224;PMS1003;56333;51.306;17.056;2023-05-15T03:04:22;13.50;12.00;
69224;PMS1003;56333;51.306;17.056;2023-05-15T03:05:51;13.00;11.70;
69224;PMS1003;56333;51.306;17.056;2023-05-15T03:07:21;14.90;12.40;
69224;PMS1003;56333;51.306;17.056;2023-05-15T03:08:49;13.20;11.90;
69224;PMS1003;56333;51.306;17.056;2023-05-15T03:10:18;13.10;11.70;
69224;PMS1003;56333;51.306;17.056;2023-05-15T03:11:49;13.00;11.80;
69224;PMS1003;56333;51.306;17.056;2023-05-15T03:13:17;12.70;11.30;
69224;PMS1003;56333;51.306;17.056;2023-05-15T03:14:47;12.10;10.50;
69224;PMS1003;56333;51.306;17.056;2023-05-15T03:16:16;12.30;11.00;
69224;PMS1003;56333;51.306;17.056;2023-05-15T03:17:46;12.70;11.40;
69224;PMS1003;56333;51.306;17.056;2023-05-15T03:19:15;12.90;11.30;
69224;PMS1003;56333;51.306;17.056;2023-05-15T03:20:46;12.60;11.30;
69224;PMS1003;56333;51.306;17.056;2023-05-15T03:22:15;13.00;11.70;
69224;PMS1003;56333;51.306;17.056;2023-05-15T03:23:44;12.70;11.50;
69224;PMS1003;56333;51.306;17.056;2023-05-15T03:25:14;13.90;12.40;
69224;PMS1003;56333;51.306;17.056;2023-05-15T03:26:43;14.90;11.20;
69224;PMS1003;56333;51.306;17.056;2023-05-15T03:28:12;12.30;11.00;
69224;PMS1003;56333;51.306;17.056;2023-05-15T03:29:42;12.00;10.80;
69224;PMS1003;56333;51.306;17.056;2023-05-15T03:31:11;11.60;10.50;
69224;PMS1003;56333;51.306;17.056;2023-05-15T03:32:40;11.90;10.70;
69224;PMS1003;56333;51.306;17.056;2023-05-15T03:34:08;11.50;10.30;
69224;PMS1003;56333;51.306;17.056;2023-05-15T03:35:38;11.30;10.10;
69224;PMS1003;56333;51.306;17.056;2023-05-15T03:37:07;11.70;9.50;
69224;PMS1003;56333;51.306;17.056;2023-05-15T03:38:35;11.20;10.00;
69224;PMS1003;56333;51.306;17.056;2023-05-15T03:40:08;11.50;10.40;
69224;PMS1003;56333;51.306;17.056;2023-05-15T03:41:39;10.80;9.80;
69224;PMS1003;56333;51.306;17.056;2023-05-15T03:43:07;10.70;9.70;
69224;PMS1003;56333;51.306;17.056;2023-05-15T03:44:37;10.00;9.00;
69224;PMS1003;56333;51.306;17.056;2023-05-15T03:46:05;10.90;9.20;
69224;PMS1003;56333;51.306;17.056;2023-05-15T03:47:34;9.90;9.00;
69224;PMS1003;56333;51.306;17.056;2023-05-15T03:49:03;10.30;9.20;
69224;PMS1003;56333;51.306;17.056;2023-05-15T03:50:33;10.00;8.90;
69224;PMS1003;56333;51.306;17.056;2023-05-15T03:52:02;9.80;8.70;
69224;PMS1003;56333;51.306;17.056;2023-05-15T03:53:31;9.10;8.00;
69224;PMS1003;56333;51.306;17.056;2023-05-15T03:55:01;9.60;8.70;
69224;PMS1003;56333;51.306;17.056;2023-05-15T03:56:31;9.10;8.20;
69224;PMS1003;56333;51.306;17.056;2023-05-15T03:58:01;10.10;8.80;
69224;PMS1003;56333;51.306;17.056;2023-05-15T03:59:30;9.40;8.50;
69224;PMS1003;56333;51.306;17.056;2023-05-15T04:00:59;9.70;8.70;
69224;PMS1003;56333;51.306;17.056;2023-05-15T04:02:28;10.40;9.30;
69224;PMS1003;56333;51.306;17.056;2023-05-15T04:03:56;9.40;8.50;
69224;PMS1003;56333;51.306;17.056;2023-05-15T04:05:25;9.40;8.50;
69224;PMS1003;56333;51.306;17.056;2023-05-15T04:06:54;10.00;8.90;
69224;PMS1003;56333;51.306;17.056;2023-05-15T04:08:24;9.10;8.10;
69224;PMS1003;56333;51.306;17.056;2023-05-15T04:09:52;9.70;8.10;
69224;PMS1003;56333;51.306;17.056;2023-05-15T04:11:21;10.20;8.70;
69224;PMS1003;56333;51.306;17.056;2023-05-15T04:12:50;8.80;7.90;
69224;PMS1003;56333;51.306;17.056;2023-05-15T04:14:20;9.60;8.60;
69224;PMS1003;56333;51.306;17.056;2023-05-15T04:15:48;10.10;8.60;
69224;PMS1003;56333;51.306;17.056;2023-05-15T04:17:18;8.50;7.70;
69224;PMS1003;56333;51.306;17.056;2023-05-15T04:18:48;8.80;7.90;
69224;PMS1003;56333;51.306;17.056;2023-05-15T04:20:20;9.90;8.20;
69224;PMS1003;56333;51.306;17.056;2023-05-15T04:21:50;9.50;8.40;
69224;PMS1003;56333;51.306;17.056;2023-05-15T04:23:19;9.40;8.50;
69224;PMS1003;56333;51.306;17.056;2023-05-15T04:24:48;9.20;8.30;
69224;PMS1003;56333;51.306;17.056;2023-05-15T04:26:17;9.50;8.50;
69224;PMS1003;56333;51.306;17.056;2023-05-15T04:27:47;9.60;8.60;
69224;PMS1003;56333;51.306;17.056;2023-05-15T04:29:16;8.60;7.70;
69224;PMS1003;56333;51.306;17.056;2023-05-15T04:30:45;8.80;7.90;
69224;PMS1003;56333;51.306;17.056;2023-05-15T04:32:13;8.60;7.70;
69224;PMS1003;56333;51.306;17.056;2023-05-15T04:33:43;8.40;7.50;
69224;PMS1003;56333;51.306;17.056;2023-05-15T04:35:12;8.40;7.30;
69224;PMS1003;56333;51.306;17.056;2023-05-15T04:36:41;8.10;7.30;
69224;PMS1003;56333;51.306;17.056;2023-05-15T04:38:10;9.10;8.00;
69224;PMS1003;56333;51.306;17.056;2023-05-15T04:39:39;8.80;7.90;
69224;PMS1003;56333;51.306;17.056;2023-05-15T04:41:08;9.00;8.00;
69224;PMS1003;56333;51.306;17.056;2023-05-15T04:42:37;8.30;7.50;
69224;PMS1003;56333;51.306;17.056;2023-05-15T04:44:05;8.70;7.60;
69224;PMS1003;56333;51.306;17.056;2023-05-15T04:45:34;9.00;7.30;
69224;PMS1003;56333;51.306;17.056;2023-05-15T04:47:04;8.90;7.40;
69224;PMS1003;56333;51.306;17.056;2023-05-15T04:48:33;7.90;7.10;
69224;PMS1003;56333;51.306;17.056;2023-05-15T04:50:02;8.50;7.30;
69224;PMS1003;56333;51.306;17.056;2023-05-15T04:51:32;8.70;7.70;
69224;PMS1003;56333;51.306;17.056;2023-05-15T04:53:01;8.00;7.20;
69224;PMS1003;56333;51.306;17.056;2023-05-15T04:54:29;8.00;7.20;
69224;PMS1003;56333;51.306;17.056;2023-05-15T04:55:58;7.60;6.70;
69224;PMS1003;56333;51.306;17.056;2023-05-15T04:57:27;8.00;6.90;
69224;PMS1003;56333;51.306;17.056;2023-05-15T04:58:56;7.50;6.80;
69224;PMS1003;56333;51.306;17.056;2023-05-15T05:00:26;9.40;7.50;
69224;PMS1003;56333;51.306;17.056;2023-05-15T05:01:56;8.30;7.40;
69224;PMS1003;56333;51.306;17.056;2023-05-15T05:03:24;7.90;7.10;
69224;PMS1003;56333;51.306;17.056;2023-05-15T05:04:54;7.70;6.90;
69224;PMS1003;56333;51.306;17.056;2023-05-15T05:06:23;8.50;7.60;
69224;PMS1003;56333;51.306;17.056;2023-05-15T05:07:51;8.00;6.60;
69224;PMS1003;56333;51.306;17.056;2023-05-15T05:09:21;8.60;6.80;
69224;PMS1003;56333;51.306;17.056;2023-05-15T05:10:55;7.30;6.60;
69224;PMS1003;56333;51.306;17.056;2023-05-15T05:12:24;6.80;6.10;
69224;PMS1003;56333;51.306;17.056;2023-05-15T05:13:53;6.30;5.70;
69224;PMS1003;56333;51.306;17.056;2023-05-15T05:15:22;6.40;5.80;
69224;PMS1003;56333;51.306;17.056;2023-05-15T05:16:50;7.20;5.80;
69224;PMS1003;56333;51.306;17.056;2023-05-15T05:18:19;7.20;6.50;
69224;PMS1003;56333;51.306;17.056;2023-05-15T05:19:49;6.80;6.20;
69224;PMS1003;56333;51.306;17.056;2023-05-15T05:21:17;6.90;6.20;
69224;PMS1003;56333;51.306;17.056;2023-05-15T05:22:47;6.50;5.90;
69224;PMS1003;56333;51.306;17.056;2023-05-15T05:24:15;7.10;6.40;
69224;PMS1003;56333;51.306;17.056;2023-05-15T05:25:44;6.70;6.00;
69224;PMS1003;56333;51.306;17.056;2023-05-15T05:27:13;6.90;6.20;
69224;PMS1003;56333;51.306;17.056;2023-05-15T05:28:42;7.20;6.10;
69224;PMS1003;56333;51.306;17.056;2023-05-15T05:30:13;7.90;5.90;
69224;PMS1003;56333;51.306;17.056;2023-05-15T05:31:42;6.70;6.00;
69224;PMS1003;56333;51.306;17.056;2023-05-15T05:33:10;6.50;5.80;
69224;PMS1003;56333;51.306;17.056;2023-05-15T05:34:39;7.10;6.40;
69224;PMS1003;56333;51.306;17.056;2023-05-15T05:36:09;6.00;5.40;
69224;PMS1003;56333;51.306;17.056;2023-05-15T05:37:38;6.60;5.50;
69224;PMS1003;56333;51.306;17.056;2023-05-15T05:39:07;6.80;6.10;
69224;PMS1003;56333;51.306;17.056;2023-05-15T05:40:36;9.30;6.00;
69224;PMS1003;56333;51.306;17.056;2023-05-15T05:42:06;6.80;6.10;
69224;PMS1003;56333;51.306;17.056;2023-05-15T05:43:34;7.00;6.20;
69224;PMS1003;56333;51.306;17.056;2023-05-15T05:45:03;7.60;6.40;
69224;PMS1003;56333;51.306;17.056;2023-05-15T05:46:33;7.60;6.40;
69224;PMS1003;56333;51.306;17.056;2023-05-15T05:48:01;8.30;6.70;
69224;PMS1003;56333;51.306;17.056;2023-05-15T05:49:31;8.00;7.20;
69224;PMS1003;56333;51.306;17.056;2023-05-15T05:51:00;7.60;6.80;
69224;PMS1003;56333;51.306;17.056;2023-05-15T05:52:29;7.50;6.20;
69224;PMS1003;56333;51.306;17.056;2023-05-15T05:53:59;6.90;6.20;
69224;PMS1003;56333;51.306;17.056;2023-05-15T05:55:28;6.60;6.00;
69224;PMS1003;56333;51.306;17.056;2023-05-15T05:56:57;7.50;6.70;
69224;PMS1003;56333;51.306;17.056;2023-05-15T05:58:25;7.30;6.60;
69224;PMS1003;56333;51.306;17.056;2023-05-15T05:59:55;7.00;6.30;
69224;PMS1003;56333;51.306;17.056;2023-05-15T06:01:24;7.30;6.40;
69224;PMS1003;56333;51.306;17.056;2023-05-15T06:02:55;7.20;6.50;
69224;PMS1003;56333;51.306;17.056;2023-05-15T06:04:25;7.80;6.80;
69224;PMS1003;56333;51.306;17.056;2023-05-15T06:05:54;7.70;6.90;
69224;PMS1003;56333;51.306;17.056;2023-05-15T06:07:23;8.40;7.50;
69224;PMS1003;56333;51.306;17.056;2023-05-15T06:08:53;8.10;7.10;
69224;PMS1003;56333;51.306;17.056;2023-05-15T06:10:22;7.10;6.40;
69224;PMS1003;56333;51.306;17.056;2023-05-15T06:11:51;7.30;6.50;
69224;PMS1003;56333;51.306;17.056;2023-05-15T06:13:21;6.80;6.10;
69224;PMS1003;56333;51.306;17.056;2023-05-15T06:14:49;8.00;6.10;
69224;PMS1003;56333;51.306;17.056;2023-05-15T06:16:20;7.60;6.60;
69224;PMS1003;56333;51.306;17.056;2023-05-15T06:17:49;7.20;6.50;
69224;PMS1003;56333;51.306;17.056;2023-05-15T06:19:17;7.10;6.30;
69224;PMS1003;56333;51.306;17.056;2023-05-15T06:20:47;7.60;6.30;
69224;PMS1003;56333;51.306;17.056;2023-05-15T06:22:16;7.20;6.50;
69224;PMS1003;56333;51.306;17.056;2023-05-15T06:23:45;8.30;6.70;
69224;PMS1003;56333;51.306;17.056;2023-05-15T06:25:13;9.20;6.90;
69224;PMS1003;56333;51.306;17.056;2023-05-15T06:26:43;7.30;6.60;
69224;PMS1003;56333;51.306;17.056;2023-05-15T06:28:12;7.30;6.60;
69224;PMS1003;56333;51.306;17.056;2023-05-15T06:29:40;6.70;6.10;
69224;PMS1003;56333;51.306;17.056;2023-05-15T06:31:09;8.40;6.30;
69224;PMS1003;56333;51.306;17.056;2023-05-15T06:32:38;6.70;6.00;
69224;PMS1003;56333;51.306;17.056;2023-05-15T06:34:07;6.70;5.90;
69224;PMS1003;56333;51.306;17.056;2023-05-15T06:35:36;6.60;5.90;
69224;PMS1003;56333;51.306;17.056;2023-05-15T06:37:05;7.40;6.30;
69224;PMS1003;56333;51.306;17.056;2023-05-15T06:38:34;7.00;6.40;
69224;PMS1003;56333;51.306;17.056;2023-05-15T06:40:04;7.10;6.30;
69224;PMS1003;56333;51.306;17.056;2023-05-15T06:43:02;7.00;6.30;
69224;PMS1003;56333;51.306;17.056;2023-05-15T06:44:31;7.80;6.80;
69224;PMS1003;56333;51.306;17.056;2023-05-15T06:46:01;7.50;6.80;
69224;PMS1003;56333;51.306;17.056;2023-05-15T06:47:30;8.60;7.60;
69224;PMS1003;56333;51.306;17.056;2023-05-15T06:48:59;7.50;6.60;
69224;PMS1003;56333;51.306;17.056;2023-05-15T06:50:28;7.30;6.60;
69224;PMS1003;56333;51.306;17.056;2023-05-15T06:51:57;7.30;6.10;
69224;PMS1003;56333;51.306;17.056;2023-05-15T06:53:28;7.10;6.40;
69224;PMS1003;56333;51.306;17.056;2023-05-15T06:54:57;7.30;6.50;
69224;PMS1003;56333;51.306;17.056;2023-05-15T06:56:26;9.10;7.20;
69224;PMS1003;56333;51.306;17.056;2023-05-15T06:57:56;9.80;7.30;
69224;PMS1003;56333;51.306;17.056;2023-05-15T06:59:26;7.80;7.00;
69224;PMS1003;56333;51.306;17.056;2023-05-15T07:00:56;8.40;7.10;
69224;PMS1003;56333;51.306;17.056;2023-05-15T07:02:24;7.60;6.90;
69224;PMS1003;56333;51.306;17.056;2023-05-15T07:03:54;7.60;6.80;
69224;PMS1003;56333;51.306;17.056;2023-05-15T07:05:22;8.00;7.00;
69224;PMS1003;56333;51.306;17.056;2023-05-15T07:06:51;7.30;6.60;
69224;PMS1003;56333;51.306;17.056;2023-05-15T07:08:21;7.60;6.80;
69224;PMS1003;56333;51.306;17.056;2023-05-15T07:09:50;7.90;7.10;
69224;PMS1003;56333;51.306;17.056;2023-05-15T07:11:19;7.60;6.90;
69224;PMS1003;56333;51.306;17.056;2023-05-15T07:12:48;8.00;7.20;
69224;PMS1003;56333;51.306;17.056;2023-05-15T07:14:17;7.80;6.90;
69224;PMS1003;56333;51.306;17.056;2023-05-15T07:15:46;7.70;6.70;
69224;PMS1003;56333;51.306;17.056;2023-05-15T07:17:16;7.60;6.90;
69224;PMS1003;56333;51.306;17.056;2023-05-15T07:18:53;7.50;6.80;
69224;PMS1003;56333;51.306;17.056;2023-05-15T07:20:30;7.90;7.10;
69224;PMS1003;56333;51.306;17.056;2023-05-15T07:22:05;7.60;6.90;
69224;PMS1003;56333;51.306;17.056;2023-05-15T07:23:36;7.20;6.30;
69224;PMS1003;56333;51.306;17.056;2023-05-15T07:25:06;8.00;6.60;
69224;PMS1003;56333;51.306;17.056;2023-05-15T07:26:43;7.00;6.40;
69224;PMS1003;56333;51.306;17.056;2023-05-15T07:28:13;6.70;6.10;
69224;PMS1003;56333;51.306;17.056;2023-05-15T07:29:52;7.00;6.20;
69224;PMS1003;56333;51.306;17.056;2023-05-15T07:31:27;7.30;6.60;
69224;PMS1003;56333;51.306;17.056;2023-05-15T07:33:06;7.50;6.70;
69224;PMS1003;56333;51.306;17.056;2023-05-15T07:34:39;8.00;7.20;
69224;PMS1003;56333;51.306;17.056;2023-05-15T07:36:09;7.50;6.70;
69224;PMS1003;56333;51.306;17.056;2023-05-15T07:37:38;7.00;6.30;
69224;PMS1003;56333;51.306;17.056;2023-05-15T07:39:07;7.00;6.30;
69224;PMS1003;56333;51.306;17.056;2023-05-15T07:40:36;7.60;6.80;
69224;PMS1003;56333;51.306;17.056;2023-05-15T07:42:05;6.60;6.00;
69224;PMS1003;56333;51.306;17.056;2023-05-15T07:43:37;7.70;6.60;
69224;PMS1003;56333;51.306;17.056;2023-05-15T07:45:09;7.80;6.40;
69224;PMS1003;56333;51.306;17.056;2023-05-15T07:46:38;8.10;7.20;
69224;PMS1003;56333;51.306;17.056;2023-05-15T07:48:18;8.20;6.20;
69224;PMS1003;56333;51.306;17.056;2023-05-15T07:49:50;7.40;6.60;
69224;PMS1003;56333;51.306;17.056;2023-05-15T07:51:21;7.50;6.50;
69224;PMS1003;56333;51.306;17.056;2023-05-15T07:52:50;7.00;6.00;
69224;PMS1003;56333;51.306;17.056;2023-05-15T07:54:24;7.20;6.20;
69224;PMS1003;56333;51.306;17.056;2023-05-15T07:55:55;6.50;5.80;
69224;PMS1003;56333;51.306;17.056;2023-05-15T07:57:27;6.90;6.00;
69224;PMS1003;56333;51.306;17.056;2023-05-15T07:58:56;7.10;6.40;
69224;PMS1003;56333;51.306;17.056;2023-05-15T08:00:26;6.80;6.20;
69224;PMS1003;56333;51.306;17.056;2023-05-15T08:01:55;6.90;6.20;
69224;PMS1003;56333;51.306;17.056;2023-05-15T08:03:24;7.50;6.60;
69224;PMS1003;56333;51.306;17.056;2023-05-15T08:04:53;6.40;5.70;
69224;PMS1003;56333;51.306;17.056;2023-05-15T08:06:23;7.60;5.90;
69224;PMS1003;56333;51.306;17.056;2023-05-15T08:07:52;5.80;5.20;
69224;PMS1003;56333;51.306;17.056;2023-05-15T08:09:21;5.80;5.20;
69224;PMS1003;56333;51.306;17.056;2023-05-15T08:10:51;8.10;5.40;
69224;PMS1003;56333;51.306;17.056;2023-05-15T08:12:21;6.30;5.70;
69224;PMS1003;56333;51.306;17.056;2023-05-15T08:13:50;6.20;5.60;
69224;PMS1003;56333;51.306;17.056;2023-05-15T08:15:19;6.30;5.70;
69224;PMS1003;56333;51.306;17.056;2023-05-15T08:16:51;6.10;5.50;
69224;PMS1003;56333;51.306;17.056;2023-05-15T08:18:20;6.30;5.40;
69224;PMS1003;56333;51.306;17.056;2023-05-15T08:19:48;5.70;5.10;
69224;PMS1003;56333;51.306;17.056;2023-05-15T08:21:18;5.30;4.80;
69224;PMS1003;56333;51.306;17.056;2023-05-15T08:22:47;5.00;4.50;
69224;PMS1003;56333;51.306;17.056;2023-05-15T08:24:16;5.50;5.00;
69224;PMS1003;56333;51.306;17.056;2023-05-15T08:25:47;5.70;5.20;
69224;PMS1003;56333;51.306;17.056;2023-05-15T08:27:18;6.60;6.00;
69224;PMS1003;56333;51.306;17.056;2023-05-15T08:28:47;5.90;5.40;
69224;PMS1003;56333;51.306;17.056;2023-05-15T08:30:17;6.00;5.30;
69224;PMS1003;56333;51.306;17.056;2023-05-15T08:31:46;5.70;5.20;
69224;PMS1003;56333;51.306;17.056;2023-05-15T08:33:16;6.00;5.40;
69224;PMS1003;56333;51.306;17.056;2023-05-15T08:34:46;6.30;5.70;
69224;PMS1003;56333;51.306;17.056;2023-05-15T08:36:14;6.40;5.60;
69224;PMS1003;56333;51.306;17.056;2023-05-15T08:37:44;6.50;5.70;
69224;PMS1003;56333;51.306;17.056;2023-05-15T08:39:13;6.00;5.40;
69224;PMS1003;56333;51.306;17.056;2023-05-15T08:40:44;6.40;5.60;
69224;PMS1003;56333;51.306;17.056;2023-05-15T08:42:23;6.90;5.60;
69224;PMS1003;56333;51.306;17.056;2023-05-15T08:43:58;6.80;6.20;
69224;PMS1003;56333;51.306;17.056;2023-05-15T08:45:29;6.20;5.60;
69224;PMS1003;56333;51.306;17.056;2023-05-15T08:46:59;6.80;6.20;
69224;PMS1003;56333;51.306;17.056;2023-05-15T08:48:29;6.70;5.90;
69224;PMS1003;56333;51.306;17.056;2023-05-15T08:50:07;6.50;5.90;
69224;PMS1003;56333;51.306;17.056;2023-05-15T08:51:39;6.40;5.80;
69224;PMS1003;56333;51.306;17.056;2023-05-15T08:53:08;7.40;6.60;
69224;PMS1003;56333;51.306;17.056;2023-05-15T08:54:39;6.60;6.00;
69224;PMS1003;56333;51.306;17.056;2023-05-15T08:56:13;6.50;5.90;
69224;PMS1003;56333;51.306;17.056;2023-05-15T08:57:42;7.50;6.80;
69224;PMS1003;56333;51.306;17.056;2023-05-15T08:59:16;7.60;6.40;
69224;PMS1003;56333;51.306;17.056;2023-05-15T09:00:46;6.70;6.10;
69224;PMS1003;56333;51.306;17.056;2023-05-15T09:02:15;6.60;5.90;
69224;PMS1003;56333;51.306;17.056;2023-05-15T09:03:45;7.10;6.40;
69224;PMS1003;56333;51.306;17.056;2023-05-15T09:05:13;6.60;6.00;
69224;PMS1003;56333;51.306;17.056;2023-05-15T09:06:43;6.90;6.30;
69224;PMS1003;56333;51.306;17.056;2023-05-15T09:08:13;7.50;6.60;
69224;PMS1003;56333;51.306;17.056;2023-05-15T09:09:44;7.10;6.40;
69224;PMS1003;56333;51.306;17.056;2023-05-15T09:11:15;7.70;7.00;
69224;PMS1003;56333;51.306;17.056;2023-05-15T09:12:45;8.00;7.30;